Time;durP1;ratioP1;P1;durP2;ratioP2;P2;SDS_P1;SDS_P2;PMS_P1;PMS_P2;Temp;Humidity;BMP_temperature;BMP_pressure;BME280_temperature;BME280_humidity;BME280_pressure;Samples;Min_cycle;Max_cycle;Signal;HPM_P1;HPM_P2
2023/09/12 00:01:40;;;;;;;;;;;20.50;49.20;;;;;;5028521;28;88120;-54
2023/09/12 00:04:06;;;;;;;;;;;20.50;49.30;;;;;;5032119;28;87230;-53
2023/09/12 00:06:31;;;;;;;;;;;20.50;49.20;;;;;;5028827;28;89066;-57
2023/09/12 00:08:57;;;;;;;;;;;20.50;49.20;;;;;;5029584;28;87151;-54
2023/09/12 00:11:25;;;;;;;;;;;20.50;49.20;;;;;;5027760;28;87719;-52
2023/09/12 00:13:51;;;;;;;;;;;20.50;49.20;;;;;;5030686;28;87928;-56
2023/09/12 00:16:16;;;;;;;;;;;20.40;49.10;;;;;;5031474;28;87743;-53
2023/09/12 00:18:42;;;;;;;;;;;20.40;49.20;;;;;;5033446;28;87770;-57
2023/09/12 00:21:08;;;;;;;;;;;20.40;49.20;;;;;;5028799;28;87405;-55
2023/09/12 00:23:33;;;;;;;;;;;20.40;49.20;;;;;;5032512;28;86366;-57
2023/09/12 00:25:59;;;;;;;;;;;20.30;49.20;;;;;;5036034;28;87401;-51
2023/09/12 00:28:24;;;;;;;;;;;20.30;49.20;;;;;;5032867;28;87856;-54
2023/09/12 00:30:51;;;;;;;;;;;20.30;49.30;;;;;;5032348;28;87933;-52
2023/09/12 00:33:16;;;;;;;;;;;20.30;48.70;;;;;;5032684;28;88654;-53
2023/09/12 00:35:42;;;;;;;;;;;20.30;49.20;;;;;;5029888;28;87498;-53
2023/09/12 00:38:08;;;;;;;;;;;20.30;49.10;;;;;;5031380;28;87707;-54
2023/09/12 00:40:34;;;;;;;;;;;20.30;49.10;;;;;;5030274;28;87480;-54
2023/09/12 00:42:59;;;;;;;;;;;20.30;49.20;;;;;;5033581;28;87402;-49
2023/09/12 00:45:25;;;;;;;;;;;20.20;49.10;;;;;;5031431;28;88337;-56
2023/09/12 00:47:51;;;;;;;;;;;20.20;49.20;;;;;;5034281;28;87487;-55
2023/09/12 00:50:17;;;;;;;;;;;20.20;49.10;;;;;;5034919;27;86991;-52
2023/09/12 00:52:43;;;;;;;;;;;20.20;49.20;;;;;;5032674;28;88615;-57
2023/09/12 00:55:09;;;;;;;;;;;20.20;49.20;;;;;;5031861;28;87987;-55
2023/09/12 00:57:35;;;;;;;;;;;20.20;49.20;;;;;;5032519;28;89755;-53
2023/09/12 01:00:04;;;;;;;;;;;20.20;49.20;;;;;;5030504;28;88164;-54
2023/09/12 01:02:29;;;;;;;;;;;20.10;49.20;;;;;;5032407;28;87210;-53
2023/09/12 01:04:55;;;;;;;;;;;20.10;49.20;;;;;;5033238;28;87632;-53
2023/09/12 01:07:20;;;;;;;;;;;20.10;49.10;;;;;;5031381;28;88543;-53
2023/09/12 01:09:46;;;;;;;;;;;20.10;49.20;;;;;;5034188;28;87520;-56
2023/09/12 01:12:14;;;;;;;;;;;20.10;49.20;;;;;;5035131;28;87852;-54
2023/09/12 01:14:40;;;;;;;;;;;20.10;49.20;;;;;;5030428;28;87085;-54
2023/09/12 01:17:05;;;;;;;;;;;20.00;49.10;;;;;;5032899;28;87089;-54
2023/09/12 01:19:31;;;;;;;;;;;20.00;49.20;;;;;;5031671;28;89465;-54
2023/09/12 01:21:56;;;;;;;;;;;20.00;49.10;;;;;;5030667;28;87075;-52
2023/09/12 01:24:34;;;;;;;;;;;20.00;49.10;;;;;;5034399;28;87970;-53
2023/09/12 01:27:18;;;;;;;;;;;20.00;49.10;;;;;;5030975;28;88195;-55
2023/09/12 01:29:45;;;;;;;;;;;19.90;49.00;;;;;;5035123;28;87185;-53
2023/09/12 01:32:12;;;;;;;;;;;19.90;49.00;;;;;;5031636;28;87734;-51
2023/09/12 01:34:37;;;;;;;;;;;19.90;49.10;;;;;;5033878;28;87137;-52
2023/09/12 01:37:03;;;;;;;;;;;19.90;49.00;;;;;;5031420;28;88381;-54
2023/09/12 01:39:28;;;;;;;;;;;19.90;49.00;;;;;;5031862;28;88579;-56
2023/09/12 01:41:54;;;;;;;;;;;19.90;49.00;;;;;;5033349;28;87211;-53
2023/09/12 01:44:22;;;;;;;;;;;19.90;49.00;;;;;;5029739;28;87947;-51
2023/09/12 01:46:49;;;;;;;;;;;19.90;49.00;;;;;;5034172;28;88824;-53
2023/09/12 01:49:16;;;;;;;;;;;19.90;49.00;;;;;;5032190;28;88098;-54
2023/09/12 01:51:42;;;;;;;;;;;19.80;49.00;;;;;;5033769;28;88010;-55
2023/09/12 01:54:08;;;;;;;;;;;19.80;49.10;;;;;;5032576;28;87098;-56
2023/09/12 01:56:34;;;;;;;;;;;19.80;49.00;;;;;;5032148;28;87642;-56
2023/09/12 01:59:00;;;;;;;;;;;19.80;49.10;;;;;;5030977;28;88591;-56
2023/09/12 02:01:27;;;;;;;;;;;19.70;49.00;;;;;;5032415;28;86560;-54
2023/09/12 02:03:53;;;;;;;;;;;19.70;49.00;;;;;;5029960;28;88191;-54
2023/09/12 02:06:18;;;;;;;;;;;19.80;49.10;;;;;;5029645;28;88814;-52
2023/09/12 02:08:43;;;;;;;;;;;19.70;49.00;;;;;;5033618;28;87905;-53
2023/09/12 02:11:09;;;;;;;;;;;19.80;49.00;;;;;;5030985;28;88597;-55
2023/09/12 02:13:34;;;;;;;;;;;19.70;49.00;;;;;;5032550;28;88683;-55
2023/09/12 02:16:01;;;;;;;;;;;19.70;49.00;;;;;;5035079;28;87670;-55
2023/09/12 02:18:26;;;;;;;;;;;19.70;49.10;;;;;;5031227;28;89634;-54
2023/09/12 02:20:52;;;;;;;;;;;19.70;49.10;;;;;;5031575;28;87556;-55
2023/09/12 02:23:17;;;;;;;;;;;19.60;49.10;;;;;;5031168;28;87640;-53
2023/09/12 02:25:42;;;;;;;;;;;19.60;49.10;;;;;;5033791;28;87585;-56
2023/09/12 02:28:08;;;;;;;;;;;19.60;49.10;;;;;;5030000;28;87170;-54
2023/09/12 02:30:33;;;;;;;;;;;19.60;49.10;;;;;;5033677;28;87824;-53
2023/09/12 02:32:59;;;;;;;;;;;19.60;49.00;;;;;;5030323;28;89110;-54
2023/09/12 02:35:24;;;;;;;;;;;19.60;49.10;;;;;;5037496;28;86997;-55
2023/09/12 02:37:50;;;;;;;;;;;19.60;49.10;;;;;;5027772;28;89375;-57
2023/09/12 02:40:18;;;;;;;;;;;19.50;49.00;;;;;;5031477;27;87351;-52
2023/09/12 02:42:43;;;;;;;;;;;19.50;49.10;;;;;;5032789;28;89121;-53
2023/09/12 02:45:09;;;;;;;;;;;19.50;49.20;;;;;;5031400;28;88222;-52
2023/09/12 02:47:34;;;;;;;;;;;19.50;49.20;;;;;;5031704;28;88292;-57
2023/09/12 02:50:00;;;;;;;;;;;19.50;49.10;;;;;;5033326;28;87019;-54
2023/09/12 02:52:25;;;;;;;;;;;19.50;49.10;;;;;;5029562;28;87885;-55
2023/09/12 02:54:51;;;;;;;;;;;19.40;49.10;;;;;;5031958;28;87181;-51
2023/09/12 02:57:16;;;;;;;;;;;19.40;49.20;;;;;;5034992;28;88091;-55
2023/09/12 02:59:42;;;;;;;;;;;19.40;49.10;;;;;;5027385;28;87148;-52
2023/09/12 03:02:07;;;;;;;;;;;19.40;49.10;;;;;;5030592;28;87626;-53
2023/09/12 03:04:35;;;;;;;;;;;19.40;49.10;;;;;;5031060;28;88075;-53
2023/09/12 03:07:00;;;;;;;;;;;19.40;49.10;;;;;;5029625;28;86951;-54
2023/09/12 03:09:26;;;;;;;;;;;19.30;49.00;;;;;;5033919;28;87394;-54
2023/09/12 03:11:51;;;;;;;;;;;19.30;49.10;;;;;;5028136;28;90087;-56
2023/09/12 03:14:17;;;;;;;;;;;19.30;49.00;;;;;;5031777;28;86538;-55
2023/09/12 03:16:42;;;;;;;;;;;19.30;49.00;;;;;;5032187;28;87298;-51
2023/09/12 03:19:07;;;;;;;;;;;19.30;49.10;;;;;;5035744;28;88374;-53
2023/09/12 03:21:33;;;;;;;;;;;19.30;49.00;;;;;;5029708;28;88078;-53
2023/09/12 03:23:58;;;;;;;;;;;19.20;49.10;;;;;;5028177;28;90312;-55
2023/09/12 03:26:24;;;;;;;;;;;19.20;49.10;;;;;;5029919;28;87193;-53
2023/09/12 03:28:52;;;;;;;;;;;19.20;49.10;;;;;;5029332;28;88357;-55
2023/09/12 03:31:18;;;;;;;;;;;19.20;49.00;;;;;;5032596;28;88258;-54
2023/09/12 03:33:49;;;;;;;;;;;19.20;49.00;;;;;;5031806;28;87064;-55
2023/09/12 03:36:15;;;;;;;;;;;19.20;49.10;;;;;;5031498;28;89225;-56
2023/09/12 03:38:40;;;;;;;;;;;19.10;49.10;;;;;;5033116;28;88859;-56
2023/09/12 03:41:06;;;;;;;;;;;19.10;49.10;;;;;;5033430;28;87145;-55
2023/09/12 03:43:32;;;;;;;;;;;19.10;48.50;;;;;;5031147;28;88417;-54
2023/09/12 03:45:57;;;;;;;;;;;19.10;49.00;;;;;;5031594;28;89192;-52
2023/09/12 03:48:23;;;;;;;;;;;19.10;49.10;;;;;;5030695;28;88588;-51
2023/09/12 03:50:48;;;;;;;;;;;19.10;49.10;;;;;;5032321;28;89947;-54
2023/09/12 03:53:14;;;;;;;;;;;19.10;49.10;;;;;;5031179;28;87160;-54
2023/09/12 03:55:40;;;;;;;;;;;19.00;49.00;;;;;;5037246;28;87737;-55
2023/09/12 03:58:06;;;;;;;;;;;19.00;49.10;;;;;;5033880;28;88538;-54
2023/09/12 04:00:31;;;;;;;;;;;19.00;49.00;;;;;;5039333;28;87142;-53
2023/09/12 04:02:56;;;;;;;;;;;19.00;49.20;;;;;;5034987;28;87892;-54
2023/09/12 04:05:22;;;;;;;;;;;18.90;49.10;;;;;;5035073;28;87093;-56
2023/09/12 04:07:48;;;;;;;;;;;18.90;49.20;;;;;;5034050;28;87635;-50
2023/09/12 04:10:13;;;;;;;;;;;18.90;49.20;;;;;;5033146;28;89240;-52
2023/09/12 04:12:39;;;;;;;;;;;18.90;49.10;;;;;;5035219;28;87271;-54
2023/09/12 04:15:05;;;;;;;;;;;18.90;49.20;;;;;;5030656;28;89050;-55
2023/09/12 04:17:30;;;;;;;;;;;18.80;49.20;;;;;;5032667;28;88199;-51
2023/09/12 04:19:56;;;;;;;;;;;18.90;49.30;;;;;;5034203;28;87188;-53
2023/09/12 04:22:21;;;;;;;;;;;18.80;49.10;;;;;;5034701;28;87617;-52
2023/09/12 04:24:47;;;;;;;;;;;18.80;49.10;;;;;;5035648;28;87128;-50
2023/09/12 04:27:12;;;;;;;;;;;18.80;49.20;;;;;;5034456;27;87007;-51
2023/09/12 04:29:39;;;;;;;;;;;18.80;49.20;;;;;;5036188;28;88079;-57
2023/09/12 04:32:04;;;;;;;;;;;18.80;49.20;;;;;;5033041;28;87124;-52
2023/09/12 04:34:30;;;;;;;;;;;18.70;49.10;;;;;;5035414;28;88128;-51
2023/09/12 04:36:56;;;;;;;;;;;18.70;49.20;;;;;;5034635;27;88752;-56
2023/09/12 04:39:21;;;;;;;;;;;18.70;49.20;;;;;;5030484;28;87418;-52
2023/09/12 04:41:47;;;;;;;;;;;18.70;49.30;;;;;;5033375;28;88118;-51
2023/09/12 04:44:12;;;;;;;;;;;18.70;49.20;;;;;;5036222;28;88536;-54
2023/09/12 04:46:38;;;;;;;;;;;18.70;48.70;;;;;;5031439;27;89703;-56
2023/09/12 04:49:03;;;;;;;;;;;18.70;49.90;;;;;;5031167;28;88224;-53
2023/09/12 04:51:29;;;;;;;;;;;18.60;49.30;;;;;;5035202;28;86377;-55
2023/09/12 04:53:55;;;;;;;;;;;18.70;49.20;;;;;;5029071;27;87585;-52
2023/09/12 04:56:20;;;;;;;;;;;18.70;49.20;;;;;;5030415;28;87970;-50
2023/09/12 04:58:46;;;;;;;;;;;18.60;49.20;;;;;;5032110;27;88100;-53
2023/09/12 05:01:11;;;;;;;;;;;18.60;49.20;;;;;;5031640;28;88687;-53
2023/09/12 05:03:37;;;;;;;;;;;18.70;49.20;;;;;;5029723;28;88108;-55
2023/09/12 05:06:03;;;;;;;;;;;18.60;49.20;;;;;;5033776;28;87179;-55
2023/09/12 05:08:29;;;;;;;;;;;18.60;49.20;;;;;;5032239;28;88531;-55
2023/09/12 05:10:54;;;;;;;;;;;18.60;49.20;;;;;;5030074;28;87114;-57
2023/09/12 05:13:20;;;;;;;;;;;18.60;49.20;;;;;;5031832;28;88206;-54
2023/09/12 05:15:46;;;;;;;;;;;18.60;49.20;;;;;;5031336;28;87762;-52
2023/09/12 05:18:12;;;;;;;;;;;18.60;49.20;;;;;;5032760;28;87163;-53
2023/09/12 05:20:37;;;;;;;;;;;18.60;49.10;;;;;;5031185;28;89481;-55
2023/09/12 05:23:03;;;;;;;;;;;18.60;49.20;;;;;;5031757;28;89382;-54
2023/09/12 05:25:29;;;;;;;;;;;18.60;49.20;;;;;;5032216;28;87000;-54
2023/09/12 05:27:55;;;;;;;;;;;18.60;49.10;;;;;;5035236;28;87022;-52
2023/09/12 05:30:20;;;;;;;;;;;18.50;49.20;;;;;;5029625;28;87405;-54
2023/09/12 05:32:46;;;;;;;;;;;18.60;49.20;;;;;;5027914;28;87727;-53
2023/09/12 05:35:11;;;;;;;;;;;18.60;49.20;;;;;;5032918;28;88024;-53
2023/09/12 05:37:37;;;;;;;;;;;18.50;49.20;;;;;;5032957;28;87198;-55
2023/09/12 05:40:03;;;;;;;;;;;18.50;49.30;;;;;;5030507;28;89954;-55
2023/09/12 05:42:29;;;;;;;;;;;18.50;49.30;;;;;;5032457;28;89716;-53
2023/09/12 05:44:54;;;;;;;;;;;18.50;49.40;;;;;;5032793;28;87118;-54
2023/09/12 05:47:20;;;;;;;;;;;18.50;49.40;;;;;;5035287;27;88830;-54
2023/09/12 05:49:46;;;;;;;;;;;18.50;49.40;;;;;;5030031;28;87398;-50
2023/09/12 05:52:12;;;;;;;;;;;18.50;49.50;;;;;;5034114;28;91145;-55
2023/09/12 05:54:37;;;;;;;;;;;18.50;49.40;;;;;;5032092;28;87452;-54
2023/09/12 05:57:03;;;;;;;;;;;18.50;49.50;;;;;;5032455;28;87301;-53
2023/09/12 05:59:29;;;;;;;;;;;18.50;49.50;;;;;;5031141;28;88917;-56
2023/09/12 06:01:55;;;;;;;;;;;18.50;49.60;;;;;;5031686;28;87403;-56
2023/09/12 06:04:20;;;;;;;;;;;18.40;49.60;;;;;;5032353;28;86388;-56
2023/09/12 06:06:46;;;;;;;;;;;18.50;49.60;;;;;;5029921;28;87175;-56
2023/09/12 06:09:11;;;;;;;;;;;18.40;49.60;;;;;;5032042;28;88463;-53
2023/09/12 06:11:37;;;;;;;;;;;18.50;49.60;;;;;;5033858;28;88124;-51
2023/09/12 06:14:02;;;;;;;;;;;18.50;49.60;;;;;;5028434;28;88672;-56
2023/09/12 06:16:29;;;;;;;;;;;18.50;49.60;;;;;;5032416;28;87138;-56
2023/09/12 06:18:55;;;;;;;;;;;18.40;49.60;;;;;;5028228;28;87968;-52
2023/09/12 06:21:21;;;;;;;;;;;18.40;49.80;;;;;;5032010;28;88535;-52
2023/09/12 06:23:47;;;;;;;;;;;18.40;49.80;;;;;;5030874;28;87543;-52
2023/09/12 06:26:12;;;;;;;;;;;18.40;49.80;;;;;;5029490;28;87865;-54
2023/09/12 06:28:38;;;;;;;;;;;18.40;49.70;;;;;;5031011;28;87084;-50
2023/09/12 06:31:03;;;;;;;;;;;18.40;49.80;;;;;;5037686;28;87615;-53
2023/09/12 06:33:29;;;;;;;;;;;18.40;49.80;;;;;;5030200;28;88636;-52
2023/09/12 06:35:54;;;;;;;;;;;18.40;49.80;;;;;;5031470;28;88093;-52
2023/09/12 06:38:21;;;;;;;;;;;18.40;50.00;;;;;;5029930;28;87649;-51
2023/09/12 06:40:47;;;;;;;;;;;18.40;50.00;;;;;;5031466;28;88128;-54
2023/09/12 06:43:13;;;;;;;;;;;18.40;49.90;;;;;;5037493;28;87150;-53
2023/09/12 06:45:40;;;;;;;;;;;18.40;50.00;;;;;;5032367;28;87905;-55
2023/09/12 06:48:06;;;;;;;;;;;18.40;49.90;;;;;;5030011;28;88175;-53
2023/09/12 06:50:31;;;;;;;;;;;18.40;49.90;;;;;;5032269;28;87804;-52
2023/09/12 06:52:56;;;;;;;;;;;18.40;49.90;;;;;;5030979;28;88183;-56
2023/09/12 06:55:22;;;;;;;;;;;18.40;49.90;;;;;;5027753;28;87411;-50
2023/09/12 06:57:47;;;;;;;;;;;18.40;50.00;;;;;;5032917;28;87945;-50
2023/09/12 07:00:13;;;;;;;;;;;18.40;50.00;;;;;;5028847;28;89043;-56
2023/09/12 07:02:39;;;;;;;;;;;18.40;50.00;;;;;;5029728;28;87246;-51
2023/09/12 07:05:04;;;;;;;;;;;18.40;50.00;;;;;;5029733;28;87539;-48
2023/09/12 07:07:30;;;;;;;;;;;18.40;50.00;;;;;;5033184;28;89966;-52
2023/09/12 07:09:56;;;;;;;;;;;18.40;50.00;;;;;;5028899;28;88308;-52
2023/09/12 07:12:22;;;;;;;;;;;18.40;50.10;;;;;;5029692;28;87088;-50
2023/09/12 07:14:47;;;;;;;;;;;18.40;50.10;;;;;;5032165;28;87002;-56
2023/09/12 07:17:13;;;;;;;;;;;18.40;50.10;;;;;;5032270;28;88028;-57
2023/09/12 07:19:38;;;;;;;;;;;18.40;50.20;;;;;;5026097;28;89316;-55
2023/09/12 07:22:04;;;;;;;;;;;18.40;50.20;;;;;;5027102;28;87269;-54
2023/09/12 07:24:29;;;;;;;;;;;18.40;50.20;;;;;;5033011;28;89144;-51
2023/09/12 07:26:55;;;;;;;;;;;18.40;50.20;;;;;;5026221;28;88415;-53
2023/09/12 07:29:20;;;;;;;;;;;18.40;50.20;;;;;;5027740;28;88912;-56
2023/09/12 07:31:46;;;;;;;;;;;18.40;50.20;;;;;;5029671;28;88035;-50
2023/09/12 07:34:14;;;;;;;;;;;18.40;50.30;;;;;;5029785;28;88189;-54
2023/09/12 07:36:40;;;;;;;;;;;18.40;50.20;;;;;;5033253;27;87064;-50
2023/09/12 07:39:06;;;;;;;;;;;18.40;50.30;;;;;;5026675;28;88859;-51
2023/09/12 07:41:31;;;;;;;;;;;18.40;50.30;;;;;;5033024;28;86458;-55
2023/09/12 07:43:57;;;;;;;;;;;18.40;50.30;;;;;;5030618;28;88613;-51
2023/09/12 07:46:22;;;;;;;;;;;18.40;50.30;;;;;;5029990;28;89727;-54
2023/09/12 07:48:48;;;;;;;;;;;18.40;50.30;;;;;;5025610;28;88228;-54
2023/09/12 07:51:14;;;;;;;;;;;18.40;50.30;;;;;;5030560;28;89418;-51
2023/09/12 07:53:40;;;;;;;;;;;18.40;50.30;;;;;;5033697;28;88221;-52
2023/09/12 07:56:05;;;;;;;;;;;18.40;50.40;;;;;;5032558;28;87030;-55
2023/09/12 07:58:31;;;;;;;;;;;18.40;50.40;;;;;;5031037;28;88088;-53
2023/09/12 08:00:56;;;;;;;;;;;18.40;50.50;;;;;;5030080;28;87109;-56
2023/09/12 08:03:22;;;;;;;;;;;18.40;50.50;;;;;;5033248;28;87660;-53
2023/09/12 08:05:54;;;;;;;;;;;18.40;50.50;;;;;;5031473;28;88046;-53
2023/09/12 08:08:20;;;;;;;;;;;18.40;50.50;;;;;;5027613;28;88662;-53
2023/09/12 08:10:46;;;;;;;;;;;18.50;50.50;;;;;;5033399;28;87829;-54
2023/09/12 08:13:11;;;;;;;;;;;18.40;50.50;;;;;;5029626;28;88346;-54
2023/09/12 08:15:37;;;;;;;;;;;18.50;50.60;;;;;;5026686;28;87202;-54
2023/09/12 08:18:02;;;;;;;;;;;18.40;50.50;;;;;;5034064;28;88992;-54
2023/09/12 08:20:28;;;;;;;;;;;18.40;50.60;;;;;;5028271;28;87117;-54
2023/09/12 08:22:53;;;;;;;;;;;18.50;50.60;;;;;;5028261;28;87860;-53
2023/09/12 08:25:19;;;;;;;;;;;18.40;50.70;;;;;;5026263;28;89574;-53
2023/09/12 08:27:44;;;;;;;;;;;18.40;50.60;;;;;;5032866;28;87110;-53
2023/09/12 08:30:10;;;;;;;;;;;18.40;50.70;;;;;;5031781;28;86654;-54
2023/09/12 08:32:36;;;;;;;;;;;18.40;50.60;;;;;;5028056;28;89364;-53
2023/09/12 08:35:03;;;;;;;;;;;18.50;50.70;;;;;;5026687;28;87185;-56
2023/09/12 08:37:28;;;;;;;;;;;18.50;50.70;;;;;;5030672;28;87977;-53
2023/09/12 08:39:57;;;;;;;;;;;18.50;50.80;;;;;;5035201;27;88313;-55
2023/09/12 08:42:23;;;;;;;;;;;18.40;50.70;;;;;;5029748;28;87744;-53
2023/09/12 08:44:49;;;;;;;;;;;18.50;50.80;;;;;;5030483;28;88385;-55
2023/09/12 08:47:15;;;;;;;;;;;18.50;50.80;;;;;;5033079;28;87127;-53
2023/09/12 08:49:42;;;;;;;;;;;18.50;50.80;;;;;;5035524;27;87584;-55
2023/09/12 08:52:07;;;;;;;;;;;18.50;50.70;;;;;;5030669;28;89409;-53
2023/09/12 08:54:33;;;;;;;;;;;18.50;50.70;;;;;;5029761;28;86404;-55
2023/09/12 08:57:01;;;;;;;;;;;18.50;50.70;;;;;;5035598;28;87192;-52
2023/09/12 08:59:27;;;;;;;;;;;18.50;50.70;;;;;;5030293;28;89854;-54
2023/09/12 09:01:54;;;;;;;;;;;18.50;50.70;;;;;;5036251;28;88954;-56
2023/09/12 09:04:20;;;;;;;;;;;18.50;50.60;;;;;;5029593;28;89458;-56
2023/09/12 09:06:45;;;;;;;;;;;18.60;50.70;;;;;;5032490;28;87096;-53
2023/09/12 09:09:12;;;;;;;;;;;18.60;50.70;;;;;;5036025;27;87540;-52
2023/09/12 09:11:38;;;;;;;;;;;18.60;50.70;;;;;;5030902;28;88005;-56
2023/09/12 09:14:03;;;;;;;;;;;18.60;50.70;;;;;;5035955;28;87353;-53
2023/09/12 09:16:29;;;;;;;;;;;18.60;50.70;;;;;;5034646;28;89051;-54
2023/09/12 09:18:57;;;;;;;;;;;18.60;50.60;;;;;;5031191;28;87819;-51
2023/09/12 09:21:25;;;;;;;;;;;18.60;50.50;;;;;;5030334;28;87421;-54
2023/09/12 09:23:51;;;;;;;;;;;18.60;50.50;;;;;;5036773;28;88958;-56
2023/09/12 09:26:16;;;;;;;;;;;18.60;50.60;;;;;;5032232;28;88063;-54
2023/09/12 09:28:42;;;;;;;;;;;18.60;50.50;;;;;;5033123;28;88542;-53
2023/09/12 09:31:12;;;;;;;;;;;18.70;50.60;;;;;;5028958;28;88156;-55
2023/09/12 09:33:38;;;;;;;;;;;18.70;50.50;;;;;;5034230;28;87256;-54
2023/09/12 09:36:05;;;;;;;;;;;18.70;50.60;;;;;;5033520;28;87882;-55
2023/09/12 09:38:30;;;;;;;;;;;18.70;50.60;;;;;;5035795;28;88154;-51
2023/09/12 09:40:56;;;;;;;;;;;18.70;50.60;;;;;;5029332;28;87212;-57
2023/09/12 09:43:22;;;;;;;;;;;18.70;50.60;;;;;;5038604;28;86787;-52
2023/09/12 09:45:47;;;;;;;;;;;18.70;50.50;;;;;;5031844;28;87599;-56
2023/09/12 09:48:22;;;;;;;;;;;18.70;50.50;;;;;;5031688;28;88089;-54
2023/09/12 09:50:48;;;;;;;;;;;18.80;50.60;;;;;;5026935;28;88525;-54
2023/09/12 09:53:13;;;;;;;;;;;18.80;50.50;;;;;;5034491;28;87634;-53
2023/09/12 09:55:39;;;;;;;;;;;18.80;50.50;;;;;;5031024;27;87926;-54
2023/09/12 09:58:07;;;;;;;;;;;18.80;50.50;;;;;;5028434;28;89049;-52
2023/09/12 10:00:33;;;;;;;;;;;18.80;50.50;;;;;;5032617;28;87128;-55
2023/09/12 10:02:59;;;;;;;;;;;18.90;50.60;;;;;;5032240;27;90373;-52
2023/09/12 10:05:24;;;;;;;;;;;18.90;50.50;;;;;;5031793;28;88264;-55
2023/09/12 10:07:50;;;;;;;;;;;18.90;50.60;;;;;;5028356;28;87385;-53
2023/09/12 10:10:16;;;;;;;;;;;18.90;50.60;;;;;;5034434;28;88197;-52
2023/09/12 10:12:45;;;;;;;;;;;18.90;50.60;;;;;;5031532;28;87198;-57
2023/09/12 10:15:12;;;;;;;;;;;18.90;50.50;;;;;;5025998;28;88126;-53
2023/09/12 10:17:39;;;;;;;;;;;18.90;50.50;;;;;;5027223;28;88388;-52
2023/09/12 10:20:11;;;;;;;;;;;18.90;50.50;;;;;;5033279;28;87051;-57
2023/09/12 10:22:40;;;;;;;;;;;19.00;50.60;;;;;;5030112;28;87965;-54
2023/09/12 10:25:07;;;;;;;;;;;19.00;50.60;;;;;;5028024;28;87160;-55
2023/09/12 10:27:32;;;;;;;;;;;19.00;50.60;;;;;;5034292;28;87070;-56
2023/09/12 10:29:59;;;;;;;;;;;19.00;50.60;;;;;;5033283;28;87999;-55
2023/09/12 10:32:26;;;;;;;;;;;19.00;50.60;;;;;;5028415;28;86835;-57
2023/09/12 10:34:52;;;;;;;;;;;19.00;50.50;;;;;;5031086;28;87127;-54
2023/09/12 10:37:19;;;;;;;;;;;19.10;50.60;;;;;;5030933;28;88292;-55
2023/09/12 10:39:45;;;;;;;;;;;19.10;50.60;;;;;;5032414;28;88149;-53
2023/09/12 10:42:12;;;;;;;;;;;19.10;50.60;;;;;;5030911;28;88017;-57
2023/09/12 10:44:38;;;;;;;;;;;19.10;50.60;;;;;;5027328;28;88250;-55
2023/09/12 10:47:04;;;;;;;;;;;19.20;50.70;;;;;;5031717;28;87287;-53
2023/09/12 10:49:29;;;;;;;;;;;19.20;50.70;;;;;;5035727;28;87424;-56
2023/09/12 10:51:55;;;;;;;;;;;19.20;50.70;;;;;;5028187;28;87175;-56
2023/09/12 10:54:25;;;;;;;;;;;19.20;50.70;;;;;;5031622;28;87080;-55
2023/09/12 10:57:03;;;;;;;;;;;19.20;50.60;;;;;;5032615;28;87640;-51
2023/09/12 10:59:31;;;;;;;;;;;19.20;50.60;;;;;;5031644;28;87132;-53
2023/09/12 11:02:16;;;;;;;;;;;19.30;50.70;;;;;;5029772;28;87884;-55
2023/09/12 11:04:42;;;;;;;;;;;19.30;50.70;;;;;;5029751;28;89696;-55
2023/09/12 11:07:26;;;;;;;;;;;19.30;50.60;;;;;;5030051;28;87164;-53
2023/09/12 11:10:11;;;;;;;;;;;19.30;50.60;;;;;;5033932;28;87755;-54
2023/09/12 11:12:37;;;;;;;;;;;19.40;51.30;;;;;;5034464;28;88352;-54
2023/09/12 11:15:05;;;;;;;;;;;19.40;50.60;;;;;;5030737;28;87877;-52
2023/09/12 11:17:36;;;;;;;;;;;19.40;50.70;;;;;;5031422;28;89542;-56
2023/09/12 11:20:08;;;;;;;;;;;19.40;50.60;;;;;;5030938;28;87117;-51
2023/09/12 11:22:34;;;;;;;;;;;19.40;50.60;;;;;;5031655;28;87534;-51
2023/09/12 11:25:05;;;;;;;;;;;19.50;51.30;;;;;;5031340;28;89348;-54
2023/09/12 11:27:51;;;;;;;;;;;19.50;50.60;;;;;;5025747;28;87168;-55
2023/09/12 11:30:17;;;;;;;;;;;19.50;50.60;;;;;;5019174;28;88980;-57
2023/09/12 11:32:43;;;;;;;;;;;19.50;50.50;;;;;;5032529;28;91426;-54
2023/09/12 11:35:10;;;;;;;;;;;19.50;50.50;;;;;;5036217;28;87150;-57
2023/09/12 11:37:37;;;;;;;;;;;19.60;50.60;;;;;;5030980;28;89346;-55
2023/09/12 11:40:11;;;;;;;;;;;19.60;50.60;;;;;;5028960;28;87237;-54
2023/09/12 11:42:39;;;;;;;;;;;19.60;50.50;;;;;;5031418;28;87017;-53
2023/09/12 11:45:07;;;;;;;;;;;19.70;50.50;;;;;;5029269;28;88556;-55
2023/09/12 11:47:33;;;;;;;;;;;19.70;50.50;;;;;;5024720;28;87024;-54
2023/09/12 11:49:59;;;;;;;;;;;19.70;50.50;;;;;;5030493;27;87074;-52
2023/09/12 11:52:24;;;;;;;;;;;19.70;50.50;;;;;;5028965;28;87859;-54
2023/09/12 11:54:50;;;;;;;;;;;19.70;50.40;;;;;;5031488;28;89056;-53
2023/09/12 11:57:16;;;;;;;;;;;19.70;50.40;;;;;;5029840;28;90083;-52
2023/09/12 11:59:45;;;;;;;;;;;19.80;50.40;;;;;;5029694;28;87039;-56
2023/09/12 12:02:10;;;;;;;;;;;19.80;50.40;;;;;;5032221;28;88851;-53
2023/09/12 12:04:36;;;;;;;;;;;19.80;50.40;;;;;;5025390;28;87928;-55
2023/09/12 12:07:04;;;;;;;;;;;19.80;50.40;;;;;;5026310;28;88871;-55
2023/09/12 12:09:29;;;;;;;;;;;19.90;50.40;;;;;;5032769;28;89356;-55
2023/09/12 12:12:00;;;;;;;;;;;19.90;50.40;;;;;;5029860;28;87971;-56
2023/09/12 12:14:25;;;;;;;;;;;19.90;50.40;;;;;;5033569;27;87211;-54
2023/09/12 12:16:52;;;;;;;;;;;19.90;50.30;;;;;;5032063;28;87569;-52
2023/09/12 12:19:17;;;;;;;;;;;19.90;50.40;;;;;;5036073;28;87965;-55
2023/09/12 12:21:43;;;;;;;;;;;19.90;50.30;;;;;;5032096;28;88577;-54
2023/09/12 12:24:14;;;;;;;;;;;19.90;50.30;;;;;;5029914;28;89068;-55
2023/09/12 12:26:45;;;;;;;;;;;20.00;50.30;;;;;;5034993;28;87169;-53
2023/09/12 12:29:11;;;;;;;;;;;20.10;50.30;;;;;;5035925;27;87864;-51
2023/09/12 12:31:37;;;;;;;;;;;20.10;50.30;;;;;;5027501;28;89248;-57
2023/09/12 12:34:03;;;;;;;;;;;20.10;50.30;;;;;;5032291;28;87984;-49
2023/09/12 12:36:29;;;;;;;;;;;20.10;50.30;;;;;;5033891;28;88709;-57
2023/09/12 12:38:55;;;;;;;;;;;20.10;50.20;;;;;;5034549;28;88137;-52
2023/09/12 12:41:25;;;;;;;;;;;20.20;50.30;;;;;;5032855;28;87798;-54
2023/09/12 12:43:51;;;;;;;;;;;20.20;50.30;;;;;;5029470;28;89813;-53
2023/09/12 12:46:19;;;;;;;;;;;20.20;50.20;;;;;;5032842;28;87057;-49
2023/09/12 12:48:45;;;;;;;;;;;20.20;50.20;;;;;;5034875;28;87658;-52
2023/09/12 12:51:16;;;;;;;;;;;20.20;50.20;;;;;;5031789;28;89924;-53
2023/09/12 12:54:02;;;;;;;;;;;20.20;50.20;;;;;;5029115;28;87171;-51
2023/09/12 12:56:28;;;;;;;;;;;20.30;50.20;;;;;;5034209;28;87942;-55
2023/09/12 12:59:03;;;;;;;;;;;20.30;50.20;;;;;;5037304;28;89381;-54
2023/09/12 13:01:29;;;;;;;;;;;20.30;50.10;;;;;;5033172;28;89972;-53
2023/09/12 13:03:56;;;;;;;;;;;20.30;50.10;;;;;;5031664;28;89870;-54
2023/09/12 13:06:22;;;;;;;;;;;20.40;50.10;;;;;;5035685;28;87174;-53
2023/09/12 13:08:48;;;;;;;;;;;20.40;50.20;;;;;;5031703;28;89189;-56
2023/09/12 13:11:14;;;;;;;;;;;20.40;50.00;;;;;;5031081;28;88553;-56
2023/09/12 13:13:40;;;;;;;;;;;20.50;50.10;;;;;;5035939;28;87225;-51
2023/09/12 13:16:09;;;;;;;;;;;20.50;50.00;;;;;;5034442;28;87016;-55
2023/09/12 13:18:35;;;;;;;;;;;20.50;50.00;;;;;;5028431;28;89928;-57
2023/09/12 13:21:00;;;;;;;;;;;20.50;50.00;;;;;;5034348;28;87132;-55
2023/09/12 13:23:27;;;;;;;;;;;20.50;50.00;;;;;;5034808;28;87676;-55
2023/09/12 13:25:52;;;;;;;;;;;20.60;50.10;;;;;;5034229;28;86416;-56
2023/09/12 13:28:18;;;;;;;;;;;20.60;50.00;;;;;;5033657;28;87627;-52
2023/09/12 13:30:44;;;;;;;;;;;20.70;50.10;;;;;;5032242;28;86992;-53
2023/09/12 13:33:10;;;;;;;;;;;20.70;50.80;;;;;;5034815;28;88573;-56
2023/09/12 13:35:36;;;;;;;;;;;20.70;50.30;;;;;;5031278;27;90124;-53
2023/09/12 13:38:03;;;;;;;;;;;20.70;50.30;;;;;;5030243;28;88781;-56
2023/09/12 13:40:29;;;;;;;;;;;20.70;50.10;;;;;;5034686;28;87042;-55
2023/09/12 13:42:54;;;;;;;;;;;20.80;50.10;;;;;;5034738;28;88609;-56
2023/09/12 13:45:20;;;;;;;;;;;20.80;50.10;;;;;;5033087;28;88210;-57
2023/09/12 13:47:45;;;;;;;;;;;20.80;50.10;;;;;;5028924;28;87227;-52
2023/09/12 13:50:11;;;;;;;;;;;20.80;50.10;;;;;;5033003;28;87175;-55
2023/09/12 13:52:36;;;;;;;;;;;20.80;50.00;;;;;;5034571;28;87105;-54
2023/09/12 13:55:03;;;;;;;;;;;20.90;50.10;;;;;;5035866;28;87639;-52
2023/09/12 13:57:28;;;;;;;;;;;20.90;50.10;;;;;;5028826;28;90817;-54
2023/09/12 13:59:54;;;;;;;;;;;20.90;50.10;;;;;;5031901;28;87231;-56
2023/09/12 14:02:20;;;;;;;;;;;20.90;50.10;;;;;;5032377;28;87449;-55
2023/09/12 14:04:45;;;;;;;;;;;21.00;50.10;;;;;;5038016;28;88156;-55
2023/09/12 14:07:11;;;;;;;;;;;21.00;50.00;;;;;;5031604;28;87712;-57
2023/09/12 14:09:36;;;;;;;;;;;21.00;50.00;;;;;;5031112;28;87317;-55
2023/09/12 14:12:02;;;;;;;;;;;21.00;50.00;;;;;;5032264;28;87669;-55